createdAt,value
2023-05-25T00:01:49.287Z,27.00
2023-05-25T00:04:17.312Z,23.35
2023-05-25T00:06:45.691Z,26.48
2023-05-25T00:09:13.398Z,26.15
2023-05-25T00:11:40.564Z,25.42
2023-05-25T00:14:08.590Z,29.25
2023-05-25T00:16:37.866Z,20.48
2023-05-25T00:19:10.643Z,20.42
2023-05-25T00:21:41.599Z,25.35
2023-05-25T00:24:09.212Z,26.65
2023-05-25T00:26:36.592Z,20.40
2023-05-25T00:29:04.897Z,19.30
2023-05-25T00:31:33.549Z,21.60
2023-05-25T00:34:01.154Z,19.25
2023-05-25T00:36:28.422Z,22.88
2023-05-25T00:38:55.919Z,25.42
2023-05-25T00:41:23.855Z,17.15
2023-05-25T00:43:51.126Z,18.15
2023-05-25T00:46:18.518Z,26.50
2023-05-25T00:48:46.614Z,27.02
2023-05-25T00:51:16.272Z,28.45
2023-05-25T00:53:43.732Z,22.80
2023-05-25T00:56:20.795Z,20.17
2023-05-25T00:58:54.734Z,18.83
2023-05-25T01:01:24.369Z,20.48
2023-05-25T01:03:54.118Z,28.58
2023-05-25T01:06:23.166Z,27.23
2023-05-25T01:09:00.414Z,23.70
2023-05-25T01:11:39.064Z,23.27
2023-05-25T01:14:06.960Z,24.63
2023-05-25T01:16:34.907Z,22.13
2023-05-25T01:19:02.985Z,19.25
2023-05-25T01:21:42.299Z,21.33
2023-05-25T01:24:46.457Z,19.10
2023-05-25T01:27:40.181Z,18.65
2023-05-25T01:30:13.655Z,26.00
2023-05-25T01:32:43.690Z,20.42
2023-05-25T01:35:12.563Z,18.92
2023-05-25T01:37:46.022Z,21.38
2023-05-25T01:40:15.808Z,17.75
2023-05-25T01:42:43.190Z,22.52
2023-05-25T01:45:13.152Z,25.80
2023-05-25T01:47:58.352Z,22.08
2023-05-25T01:50:43.238Z,25.83
2023-05-25T01:53:16.211Z,23.33
2023-05-25T01:55:53.857Z,23.70
2023-05-25T01:58:22.311Z,23.10
2023-05-25T02:00:51.786Z,21.67
2023-05-25T02:03:20.212Z,21.88
2023-05-25T02:05:49.468Z,28.23
2023-05-25T02:08:16.816Z,17.52
2023-05-25T02:10:44.178Z,18.00
2023-05-25T02:13:12.376Z,24.67
2023-05-25T02:15:39.650Z,19.70
2023-05-25T02:18:08.690Z,22.67
2023-05-25T02:20:37.716Z,22.67
2023-05-25T02:23:05.177Z,18.90
2023-05-25T02:25:32.420Z,21.98
2023-05-25T02:27:59.700Z,21.08
2023-05-25T02:30:27.043Z,23.58
2023-05-25T02:32:57.318Z,20.85
2023-05-25T02:35:24.753Z,20.05
2023-05-25T02:37:52.177Z,21.45
2023-05-25T02:40:19.536Z,20.70
2023-05-25T02:42:47.328Z,23.17
2023-05-25T02:45:15.467Z,23.38
2023-05-25T02:47:42.758Z,22.35
2023-05-25T02:50:10.799Z,21.00
2023-05-25T02:52:43.609Z,21.98
2023-05-25T02:55:13.680Z,22.20
2023-05-25T02:57:42.228Z,23.70
2023-05-25T03:00:12.498Z,23.00
2023-05-25T03:02:40.114Z,30.48
2023-05-25T03:05:08.814Z,21.40
2023-05-25T03:07:36.914Z,23.58
2023-05-25T03:10:04.899Z,23.92
2023-05-25T03:12:32.910Z,30.67
2023-05-25T03:15:00.192Z,25.58
2023-05-25T03:17:27.530Z,26.10
2023-05-25T03:19:55.026Z,29.42
2023-05-25T03:22:22.407Z,23.85
2023-05-25T03:24:50.317Z,25.10
2023-05-25T03:27:18.186Z,21.92
2023-05-25T03:29:45.932Z,23.67
2023-05-25T03:32:14.186Z,32.50
2023-05-25T03:34:41.632Z,24.95
2023-05-25T03:37:10.578Z,22.23
2023-05-25T03:39:37.990Z,24.70
2023-05-25T03:42:06.583Z,24.25
2023-05-25T03:44:34.059Z,22.30
2023-05-25T03:47:01.394Z,27.50
2023-05-25T03:49:29.442Z,23.60
2023-05-25T03:52:00.201Z,21.95
2023-05-25T03:54:28.273Z,19.95
2023-05-25T03:56:56.854Z,19.60
2023-05-25T03:59:25.811Z,23.45
2023-05-25T04:01:53.078Z,25.15
2023-05-25T04:04:20.766Z,19.33
2023-05-25T04:06:49.203Z,21.75
2023-05-25T04:09:16.551Z,22.52
2023-05-25T04:11:45.512Z,24.92
2023-05-25T04:14:13.063Z,26.30
2023-05-25T04:16:42.279Z,22.52
2023-05-25T04:19:10.347Z,21.40
2023-05-25T04:21:37.976Z,27.13
2023-05-25T04:24:07.842Z,32.55
2023-05-25T04:26:35.724Z,30.95
2023-05-25T04:29:03.706Z,28.13
2023-05-25T04:31:47.432Z,27.25
2023-05-25T04:34:15.151Z,29.90
2023-05-25T04:36:50.517Z,29.95
2023-05-25T04:39:18.736Z,31.35
2023-05-25T04:41:53.068Z,36.90
2023-05-25T04:44:20.637Z,32.35
2023-05-25T04:46:51.152Z,30.00
2023-05-25T04:49:24.055Z,36.45
2023-05-25T04:51:51.762Z,36.60
2023-05-25T04:54:19.295Z,30.92
2023-05-25T04:56:46.680Z,33.60
2023-05-25T04:59:13.917Z,34.03
2023-05-25T05:01:41.610Z,34.10
2023-05-25T05:06:39.894Z,35.83
2023-05-25T05:09:11.012Z,37.80
2023-05-25T05:11:38.595Z,35.13
2023-05-25T05:14:07.384Z,33.45
2023-05-25T05:16:35.574Z,29.70
2023-05-25T05:19:03.111Z,36.10
2023-05-25T05:21:30.973Z,34.35
2023-05-25T05:23:58.375Z,31.40
2023-05-25T05:26:25.718Z,32.63
2023-05-25T05:28:53.194Z,26.77
2023-05-25T05:31:23.112Z,34.33
2023-05-25T05:33:50.879Z,27.92
2023-05-25T05:36:18.417Z,37.25
2023-05-25T05:38:46.929Z,36.20
2023-05-25T05:41:14.805Z,34.42
2023-05-25T05:43:48.074Z,36.78
2023-05-25T05:46:15.468Z,38.97
2023-05-25T05:48:43.023Z,36.72
2023-05-25T05:51:11.651Z,36.47
2023-05-25T05:53:39.120Z,30.13
2023-05-25T05:56:07.317Z,31.63
2023-05-25T05:58:34.853Z,29.13
2023-05-25T06:01:03.541Z,35.83
2023-05-25T06:03:31.025Z,36.10
2023-05-25T06:05:58.440Z,36.78
2023-05-25T06:08:27.603Z,28.08
2023-05-25T06:10:56.126Z,39.80
2023-05-25T06:13:23.538Z,28.52
2023-05-25T06:15:50.888Z,27.08
2023-05-25T06:18:22.858Z,30.58
2023-05-25T06:20:50.443Z,30.38
2023-05-25T06:23:18.972Z,28.75
2023-05-25T06:25:47.081Z,28.08
2023-05-25T06:28:15.597Z,24.30
2023-05-25T06:30:42.945Z,30.50
2023-05-25T06:33:11.832Z,25.33
2023-05-25T06:35:39.357Z,28.15
2023-05-25T06:38:07.012Z,32.05
2023-05-25T06:40:35.524Z,31.50
2023-05-25T06:43:03.760Z,35.42
2023-05-25T06:45:59.957Z,26.30
2023-05-25T06:48:27.674Z,35.78
2023-05-25T06:50:54.943Z,26.42
2023-05-25T06:53:22.275Z,30.15
2023-05-25T06:55:49.604Z,31.25
2023-05-25T06:58:17.078Z,26.30
2023-05-25T07:00:46.022Z,25.85
2023-05-25T07:03:14.203Z,30.58
2023-05-25T07:05:41.577Z,26.98
2023-05-25T07:08:08.982Z,24.40
2023-05-25T07:10:36.195Z,34.28
2023-05-25T07:13:03.497Z,21.38
2023-05-25T07:15:30.961Z,21.00
2023-05-25T07:17:58.869Z,22.80
2023-05-25T07:20:27.452Z,19.33
2023-05-25T07:22:54.852Z,23.25
2023-05-25T07:25:22.181Z,21.70
2023-05-25T07:27:50.555Z,23.02
2023-05-25T07:30:17.887Z,20.33
2023-05-25T07:32:45.293Z,19.02
2023-05-25T07:35:12.575Z,20.75
2023-05-25T07:37:39.870Z,20.48
2023-05-25T07:40:08.040Z,21.08
2023-05-25T07:42:35.565Z,29.42
2023-05-25T07:45:03.397Z,18.83
2023-05-25T07:47:30.772Z,16.15
2023-05-25T07:49:58.065Z,20.58
2023-05-25T07:52:25.364Z,18.88
2023-05-25T07:54:52.764Z,20.92
2023-05-25T07:57:20.141Z,20.17
2023-05-25T07:59:47.397Z,18.95
2023-05-25T08:02:14.811Z,21.02
2023-05-25T08:04:42.353Z,17.67
2023-05-25T08:07:09.798Z,18.88
2023-05-25T08:09:37.016Z,21.33
2023-05-25T08:12:30.177Z,17.65
2023-05-25T08:14:52.015Z,18.08
2023-05-25T08:17:19.298Z,24.65
2023-05-25T08:19:46.671Z,24.02
2023-05-25T08:22:13.883Z,17.80
2023-05-25T08:24:41.469Z,20.02
2023-05-25T08:27:08.859Z,18.05
2023-05-25T08:29:36.135Z,20.02
2023-05-25T08:32:03.491Z,20.33
2023-05-25T08:34:30.815Z,21.20
2023-05-25T08:36:58.544Z,22.60
2023-05-25T08:39:25.974Z,20.27
2023-05-25T08:41:54.007Z,23.23
2023-05-25T08:44:22.291Z,23.02
2023-05-25T08:46:50.412Z,19.88
2023-05-25T08:49:17.993Z,20.75
2023-05-25T08:51:54.053Z,24.15
2023-05-25T08:54:37.411Z,26.08
2023-05-25T08:57:17.031Z,25.83
2023-05-25T09:00:11.108Z,23.20
2023-05-25T09:02:44.251Z,20.52
2023-05-25T09:05:13.421Z,22.73
2023-05-25T09:07:43.910Z,25.67
2023-05-25T09:10:15.232Z,27.35
2023-05-25T09:12:43.793Z,24.45
2023-05-25T09:15:12.360Z,25.63
2023-05-25T09:17:41.688Z,20.25
2023-05-25T09:20:13.812Z,22.35
2023-05-25T09:22:42.345Z,19.77
2023-05-25T09:25:11.730Z,20.27
2023-05-25T09:27:39.454Z,19.08
2023-05-25T09:30:07.785Z,19.00
2023-05-25T09:32:36.372Z,17.33
2023-05-25T09:35:15.642Z,25.83
2023-05-25T09:37:44.317Z,18.90
2023-05-25T09:40:12.503Z,18.08
2023-05-25T09:42:41.219Z,18.67
2023-05-25T09:45:09.275Z,16.85
2023-05-25T09:47:38.393Z,18.98
2023-05-25T09:50:07.009Z,21.60
2023-05-25T09:52:35.801Z,22.75
2023-05-25T09:55:03.960Z,21.83
2023-05-25T09:57:31.540Z,20.63
2023-05-25T09:59:59.193Z,21.65
2023-05-25T10:02:28.093Z,17.60
2023-05-25T10:04:55.607Z,19.90
2023-05-25T10:07:24.613Z,21.63
2023-05-25T10:09:54.827Z,20.98
2023-05-25T10:12:24.137Z,17.65
2023-05-25T10:14:52.255Z,20.40
2023-05-25T10:17:24.932Z,21.48
2023-05-25T10:20:01.250Z,19.70
2023-05-25T10:22:44.949Z,22.63
2023-05-25T10:25:17.831Z,20.63
2023-05-25T10:27:54.324Z,21.85
2023-05-25T10:30:23.720Z,21.48
2023-05-25T10:32:51.624Z,21.10
2023-05-25T10:35:21.150Z,17.30
2023-05-25T10:37:51.552Z,19.73
2023-05-25T10:42:53.060Z,21.33
2023-05-25T10:45:21.848Z,17.95
2023-05-25T10:47:51.150Z,18.27
2023-05-25T10:50:27.283Z,22.50
2023-05-25T10:53:08.278Z,16.95
2023-05-25T10:55:53.354Z,18.02
2023-05-25T10:58:23.084Z,14.38
2023-05-25T11:01:09.260Z,13.13
2023-05-25T11:03:50.733Z,20.10
2023-05-25T11:06:21.818Z,14.55
2023-05-25T11:09:00.474Z,15.80
2023-05-25T11:11:43.214Z,15.07
2023-05-25T11:14:40.737Z,15.85
2023-05-25T11:17:18.341Z,17.15
2023-05-25T11:19:52.173Z,18.10
2023-05-25T11:22:35.483Z,14.43
2023-05-25T11:25:24.945Z,16.08
2023-05-25T11:27:54.503Z,19.88
2023-05-25T11:30:28.613Z,19.70
2023-05-25T11:32:59.651Z,20.60
2023-05-25T11:35:28.879Z,21.52
2023-05-25T11:37:56.176Z,22.38
2023-05-25T11:40:23.950Z,20.88
2023-05-25T11:42:52.977Z,22.23
2023-05-25T11:45:23.299Z,25.85
2023-05-25T11:47:50.808Z,23.90
2023-05-25T11:50:18.205Z,22.05
2023-05-25T11:52:45.672Z,25.55
2023-05-25T11:55:14.541Z,20.73
2023-05-25T11:57:42.357Z,20.95
2023-05-25T12:00:11.497Z,22.25
2023-05-25T12:02:42.067Z,23.58
2023-05-25T12:05:11.305Z,24.67
2023-05-25T12:07:46.930Z,23.55
2023-05-25T12:10:17.882Z,26.90
2023-05-25T12:12:51.652Z,26.45
2023-05-25T12:15:23.779Z,23.70
2023-05-25T12:17:53.795Z,30.08
2023-05-25T12:20:22.103Z,26.15
2023-05-25T12:22:49.697Z,27.90
2023-05-25T12:25:21.957Z,24.33
2023-05-25T12:27:49.752Z,29.27
2023-05-25T12:30:16.985Z,27.92
2023-05-25T12:33:15.180Z,27.45
2023-05-25T12:35:48.860Z,27.85
2023-05-25T12:38:18.935Z,26.80
2023-05-25T12:40:47.147Z,24.13
2023-05-25T12:43:17.021Z,25.27
2023-05-25T12:45:44.657Z,28.45
2023-05-25T12:48:12.708Z,28.13
2023-05-25T12:50:56.503Z,27.73
2023-05-25T12:53:23.803Z,25.45
2023-05-25T12:56:00.330Z,26.38
2023-05-25T12:58:28.814Z,28.92
2023-05-25T13:00:56.286Z,26.25
2023-05-25T13:03:23.660Z,25.48
2023-05-25T13:05:51.910Z,32.90
2023-05-25T13:08:19.366Z,28.17
2023-05-25T13:10:51.637Z,24.65
2023-05-25T13:13:18.975Z,30.05
2023-05-25T13:15:46.157Z,29.40
2023-05-25T13:18:13.559Z,23.73
2023-05-25T13:20:40.977Z,31.15
2023-05-25T13:23:08.333Z,44.67
2023-05-25T13:25:36.410Z,31.60
2023-05-25T13:28:05.813Z,30.15
2023-05-25T13:30:33.151Z,23.33
2023-05-25T13:33:00.731Z,29.02
2023-05-25T13:35:41.807Z,29.40
2023-05-25T13:38:10.782Z,39.42
2023-05-25T13:40:38.079Z,28.27
2023-05-25T13:43:05.584Z,26.75
2023-05-25T13:45:34.132Z,25.23
2023-05-25T13:48:01.483Z,30.33
2023-05-25T13:50:28.855Z,26.20
2023-05-25T13:52:56.183Z,31.77
2023-05-25T13:55:24.113Z,27.95
2023-05-25T13:57:52.440Z,26.23
2023-05-25T14:00:20.135Z,28.27
2023-05-25T14:02:47.830Z,31.02
2023-05-25T14:05:15.267Z,27.05
2023-05-25T14:07:42.667Z,26.92
2023-05-25T14:10:10.932Z,32.65
2023-05-25T14:12:38.499Z,30.23
2023-05-25T14:15:07.196Z,31.83
2023-05-25T14:17:34.603Z,28.15
2023-05-25T14:20:04.842Z,34.65
2023-05-25T14:24:59.800Z,32.50
2023-05-25T14:27:27.253Z,30.67
2023-05-25T14:29:54.831Z,32.15
2023-05-25T14:32:22.182Z,29.88
2023-05-25T14:34:49.537Z,28.40
2023-05-25T14:37:16.777Z,31.95
2023-05-25T14:39:44.079Z,28.75
2023-05-25T14:42:11.806Z,31.75
2023-05-25T14:44:39.135Z,29.23
2023-05-25T14:47:06.811Z,31.00
2023-05-25T14:49:34.366Z,30.27
2023-05-25T14:52:01.692Z,27.10
2023-05-25T14:54:29.109Z,31.55
2023-05-25T14:56:56.519Z,27.45
2023-05-25T14:59:23.955Z,26.48
2023-05-25T15:01:51.468Z,26.08
2023-05-25T15:04:19.046Z,25.40
2023-05-25T15:06:46.441Z,29.58
2023-05-25T15:09:16.084Z,26.33
2023-05-25T15:11:43.326Z,47.63
2023-05-25T15:14:10.790Z,55.90
2023-05-25T15:16:38.729Z,29.13
2023-05-25T15:19:06.035Z,27.40
2023-05-25T15:21:33.568Z,25.38
2023-05-25T15:24:00.952Z,28.55
2023-05-25T15:26:28.382Z,25.85
2023-05-25T15:28:55.623Z,22.73
2023-05-25T15:31:24.020Z,23.55
2023-05-25T15:33:58.216Z,23.58
2023-05-25T15:36:26.298Z,27.70
2023-05-25T15:38:53.533Z,26.05
2023-05-25T15:41:21.015Z,24.52
2023-05-25T15:44:01.170Z,29.10
2023-05-25T15:46:29.205Z,24.58
2023-05-25T15:48:56.721Z,22.35
2023-05-25T15:51:24.132Z,22.80
2023-05-25T15:53:51.320Z,21.40
2023-05-25T15:56:18.674Z,27.08
2023-05-25T15:58:48.982Z,25.83
2023-05-25T16:03:45.031Z,25.33
2023-05-25T16:06:12.501Z,21.88
2023-05-25T16:08:39.699Z,25.52
2023-05-25T16:11:07.146Z,25.52
2023-05-25T16:13:34.475Z,25.05
2023-05-25T16:16:02.101Z,25.73
2023-05-25T16:18:29.500Z,29.35
2023-05-25T16:20:58.084Z,29.10
2023-05-25T16:23:25.742Z,31.17
2023-05-25T16:25:53.356Z,29.33
2023-05-25T16:28:20.962Z,24.70
2023-05-25T16:30:48.223Z,28.98
2023-05-25T16:33:15.745Z,22.92
2023-05-25T16:35:43.987Z,23.92
2023-05-25T16:38:11.652Z,24.00
2023-05-25T16:40:39.045Z,23.10
2023-05-25T16:43:06.476Z,27.13
2023-05-25T16:45:33.733Z,28.08
2023-05-25T16:48:01.198Z,26.05
2023-05-25T16:50:29.170Z,27.67
2023-05-25T16:52:57.218Z,27.90
2023-05-25T16:55:24.656Z,28.10
2023-05-25T16:57:52.074Z,26.70
2023-05-25T17:00:19.837Z,26.75
2023-05-25T17:02:47.332Z,25.25
2023-05-25T17:05:15.449Z,32.83
2023-05-25T17:07:42.888Z,26.38
2023-05-25T17:10:10.893Z,31.35
2023-05-25T17:12:38.495Z,26.10
2023-05-25T17:15:06.784Z,31.95
2023-05-25T17:17:34.245Z,38.67
2023-05-25T17:20:01.935Z,30.70
2023-05-25T17:22:29.499Z,32.30
2023-05-25T17:24:56.847Z,34.42
2023-05-25T17:27:24.318Z,30.45
2023-05-25T17:29:51.871Z,31.80
2023-05-25T17:32:19.533Z,33.22
2023-05-25T17:34:46.960Z,36.38
2023-05-25T17:37:14.424Z,29.42
2023-05-25T17:39:42.904Z,28.25
2023-05-25T17:42:10.525Z,31.95
2023-05-25T17:44:42.578Z,34.08
2023-05-25T17:47:11.219Z,31.25
2023-05-25T17:49:38.919Z,34.47
2023-05-25T17:52:07.669Z,28.65
2023-05-25T17:54:35.889Z,32.83
2023-05-25T17:57:03.681Z,32.50
2023-05-25T17:59:31.127Z,34.10
2023-05-25T18:01:58.563Z,30.60
2023-05-25T18:04:26.085Z,33.97
2023-05-25T18:06:53.543Z,29.30
2023-05-25T18:09:21.936Z,31.88
2023-05-25T18:11:51.889Z,30.20
2023-05-25T18:14:21.241Z,34.97
2023-05-25T18:16:48.729Z,33.50
2023-05-25T18:19:17.910Z,37.35
2023-05-25T18:21:45.238Z,31.02
2023-05-25T18:24:12.697Z,33.33
2023-05-25T18:26:41.731Z,34.25
2023-05-25T18:29:09.125Z,36.40
2023-05-25T18:31:36.605Z,32.28
2023-05-25T18:34:05.508Z,31.13
2023-05-25T18:36:33.359Z,35.33
2023-05-25T18:39:00.701Z,32.45
2023-05-25T18:41:28.382Z,34.53
2023-05-25T18:43:55.977Z,33.30
2023-05-25T18:46:24.944Z,41.33
2023-05-25T18:48:52.869Z,30.67
2023-05-25T18:51:25.975Z,35.45
2023-05-25T18:53:53.612Z,38.38
2023-05-25T18:56:21.590Z,41.20
2023-05-25T18:58:50.797Z,36.40
2023-05-25T19:01:18.530Z,37.22
2023-05-25T19:03:46.286Z,37.08
2023-05-25T19:06:13.800Z,35.13
2023-05-25T19:08:41.182Z,33.60
2023-05-25T19:11:08.534Z,34.53
2023-05-25T19:13:35.936Z,36.60
2023-05-25T19:16:04.335Z,35.72
2023-05-25T19:18:31.718Z,36.97
2023-05-25T19:20:59.522Z,37.20
2023-05-25T19:23:27.056Z,35.80
2023-05-25T19:25:54.591Z,38.25
2023-05-25T19:28:21.926Z,34.63
2023-05-25T19:30:49.392Z,40.05
2023-05-25T19:33:16.867Z,41.40
2023-05-25T19:35:45.393Z,56.15
2023-05-25T19:38:13.048Z,39.13
2023-05-25T19:40:40.636Z,41.53
2023-05-25T19:43:07.893Z,45.58
2023-05-25T19:45:35.784Z,40.40
2023-05-25T19:48:03.636Z,43.55
2023-05-25T19:50:31.006Z,42.47
2023-05-25T19:52:59.002Z,42.78
2023-05-25T19:55:27.610Z,42.83
2023-05-25T19:57:55.160Z,46.78
2023-05-25T20:00:26.612Z,43.17
2023-05-25T20:02:54.739Z,41.00
2023-05-25T20:05:22.539Z,37.83
2023-05-25T20:07:52.298Z,37.90
2023-05-25T20:10:20.048Z,38.83
2023-05-25T20:12:47.489Z,38.78
2023-05-25T20:15:15.177Z,39.13
2023-05-25T20:17:42.726Z,33.75
2023-05-25T20:20:10.555Z,36.35
2023-05-25T20:22:38.046Z,39.30
2023-05-25T20:25:06.370Z,33.97
2023-05-25T20:27:33.653Z,41.38
2023-05-25T20:30:01.007Z,37.33
2023-05-25T20:32:28.401Z,42.42
2023-05-25T20:34:55.774Z,36.50
2023-05-25T20:37:22.944Z,40.15
2023-05-25T20:39:50.455Z,46.78
2023-05-25T20:42:17.728Z,46.47
2023-05-25T20:44:45.130Z,43.38
2023-05-25T20:47:12.400Z,47.92
2023-05-25T20:49:39.671Z,45.67
2023-05-25T20:52:07.202Z,48.55
2023-05-25T20:54:34.693Z,40.80
2023-05-25T20:57:04.009Z,41.17
2023-05-25T20:59:32.015Z,55.40
2023-05-25T21:01:59.459Z,43.00
2023-05-25T21:04:27.352Z,52.75
2023-05-25T21:06:55.603Z,56.40
2023-05-25T21:09:23.115Z,55.47
2023-05-25T21:11:50.904Z,49.33
2023-05-25T21:14:18.202Z,46.92
2023-05-25T21:16:45.728Z,47.40
2023-05-25T21:19:13.062Z,45.22
2023-05-25T21:21:40.533Z,41.50
2023-05-25T21:24:08.114Z,42.67
2023-05-25T21:26:35.574Z,40.28
2023-05-25T21:29:02.955Z,38.58
2023-05-25T21:31:30.372Z,39.83
2023-05-25T21:33:59.386Z,36.55
2023-05-25T21:36:27.647Z,54.85
2023-05-25T21:38:54.927Z,48.17
2023-05-25T21:41:23.398Z,51.58
2023-05-25T21:43:50.884Z,45.38
2023-05-25T21:46:18.292Z,41.15
2023-05-25T21:48:45.555Z,41.72
2023-05-25T21:51:12.840Z,36.72
2023-05-25T21:53:40.072Z,45.65
2023-05-25T21:56:07.349Z,40.35
2023-05-25T21:58:34.535Z,40.28
2023-05-25T22:01:01.905Z,35.83
2023-05-25T22:03:29.629Z,47.17
2023-05-25T22:05:56.882Z,41.22
2023-05-25T22:08:24.856Z,45.58
2023-05-25T22:10:52.092Z,44.28
2023-05-25T22:13:19.292Z,41.05
2023-05-25T22:15:46.721Z,40.17
2023-05-25T22:18:14.328Z,43.20
2023-05-25T22:20:42.301Z,46.05
2023-05-25T22:23:13.132Z,39.88
2023-05-25T22:25:40.638Z,39.72
2023-05-25T22:28:08.359Z,48.67
2023-05-25T22:30:35.665Z,44.00
2023-05-25T22:33:03.356Z,50.60
2023-05-25T22:35:30.905Z,44.58
2023-05-25T22:37:58.235Z,44.22
2023-05-25T22:40:25.610Z,49.80
2023-05-25T22:42:52.825Z,53.20
2023-05-25T22:45:21.463Z,45.25
2023-05-25T22:47:48.927Z,43.70
2023-05-25T22:50:16.533Z,48.03
2023-05-25T22:52:43.964Z,42.92
2023-05-25T22:55:11.323Z,45.17
2023-05-25T22:57:39.413Z,51.97
2023-05-25T23:00:07.816Z,51.97
2023-05-25T23:02:35.161Z,47.70
2023-05-25T23:05:02.860Z,43.78
2023-05-25T23:07:30.180Z,51.80
2023-05-25T23:09:57.565Z,41.28
2023-05-25T23:12:24.907Z,48.03
2023-05-25T23:14:53.503Z,47.72
2023-05-25T23:17:22.020Z,50.03
2023-05-25T23:19:49.244Z,49.15
2023-05-25T23:22:16.622Z,42.83
2023-05-25T23:24:43.836Z,42.72
2023-05-25T23:27:11.279Z,40.38
2023-05-25T23:29:38.535Z,39.88
2023-05-25T23:32:06.832Z,41.80
2023-05-25T23:34:34.075Z,43.53
2023-05-25T23:37:01.621Z,42.42
2023-05-25T23:39:28.861Z,47.75
2023-05-25T23:41:56.564Z,46.65
2023-05-25T23:44:23.926Z,50.28
2023-05-25T23:46:51.395Z,52.28
2023-05-25T23:49:18.606Z,49.38
2023-05-25T23:51:46.156Z,47.80
2023-05-25T23:54:13.446Z,45.20
2023-05-25T23:56:40.705Z,45.70
2023-05-25T23:59:08.130Z,50.90
